TimeMST,TemperatureF,Dew PointF,Humidity,Sea Level PressureIn,VisibilityMPH,Wind Direction,Wind SpeedMPH,Gust SpeedMPH,PrecipitationIn,Events,Conditions,WindDirDegrees,DateUTC
12:53 AM,35.6,26.6,70,29.66,10.0,Variable,4.6,-,N/A,,Mostly Cloudy,0,2011-11-25 07:53:00
1:53 AM,45.0,23.0,42,29.67,10.0,SW,11.5,-,N/A,,Clear,230,2011-11-25 08:53:00
2:53 AM,30.9,25.0,79,29.75,10.0,West,3.5,-,N/A,,Partly Cloudy,280,2011-11-25 09:53:00
3:53 AM,39.9,21.9,49,29.72,10.0,SSW,5.8,-,N/A,,Partly Cloudy,210,2011-11-25 10:53:00
4:53 AM,42.1,24.1,49,29.68,10.0,South,11.5,-,N/A,,Scattered Clouds,180,2011-11-25 11:53:00
5:53 AM,39.9,28.0,63,29.69,10.0,South,16.1,23.0,N/A,,Mostly Cloudy,180,2011-11-25 12:53:00
6:24 AM,35.6,30.2,81,29.68,2.5,WNW,31.1,44.9,0.00,Snow,Light Snow,300,2011-11-25 13:24:00
6:26 AM,33.8,30.2,87,29.69,1.5,WNW,26.5,44.9,0.01,Snow,Light Snow,300,2011-11-25 13:26:00
6:33 AM,33.8,30.2,87,29.70,1.0,West,28.8,39.1,0.03,Snow,Light Snow,280,2011-11-25 13:33:00
6:45 AM,33.8,30.2,87,29.70,2.5,West,10.4,-,0.04,Snow,Light Snow,260,2011-11-25 13:45:00
6:53 AM,35.1,30.0,82,29.79,9.0,WSW,17.3,24.2,0.05,,Overcast,250,2011-11-25 13:53:00
7:02 AM,35.6,30.2,81,29.69,10.0,West,12.7,-,0.00,Rain,Light Rain,270,2011-11-25 14:02:00
7:53 AM,36.0,26.1,67,29.83,10.0,West,20.7,40.3,0.00,,Mostly Cloudy,280,2011-11-25 14:53:00
8:53 AM,34.0,23.0,64,29.88,10.0,West,25.3,36.8,N/A,,Mostly Cloudy,260,2011-11-25 15:53:00
9:53 AM,34.0,21.0,59,29.97,10.0,West,16.1,29.9,N/A,,Clear,280,2011-11-25 16:53:00
10:28 AM,33.8,24.8,70,29.89,1.5,WNW,31.1,40.3,0.00,Snow,Light Snow,300,2011-11-25 17:28:00
10:30 AM,30.2,24.8,80,29.88,0.5,WNW,36.8,46.0,0.00,Snow,Snow,290,2011-11-25 17:30:00
10:33 AM,28.4,24.8,86,29.89,0.2,West,33.4,51.8,0.00,Fog-Snow,Snow,280,2011-11-25 17:33:00
10:42 AM,30.2,24.8,80,29.88,1.0,West,18.4,39.1,0.00,Snow,Light Snow,260,2011-11-25 17:42:00
10:44 AM,30.2,24.8,80,29.88,3.0,West,15.0,25.3,0.00,Snow,Light Snow,260,2011-11-25 17:44:00
10:53 AM,32.0,25.0,75,30.01,10.0,West,17.3,23.0,0.00,,Mostly Cloudy,270,2011-11-25 17:53:00
11:53 AM,35.6,19.4,52,29.90,10.0,West,24.2,29.9,N/A,,Scattered Clouds,270,2011-11-25 18:53:00
12:53 PM,36.0,17.1,46,30.04,10.0,West,20.7,35.7,N/A,,Clear,270,2011-11-25 19:53:00
1:14 PM,32.0,21.2,64,29.95,2.0,WNW,19.6,42.6,0.00,Snow,Light Snow,290,2011-11-25 20:14:00
1:22 PM,33.8,19.4,56,29.95,9.0,WNW,17.3,25.3,0.00,,Scattered Clouds,290,2011-11-25 20:22:00
1:53 PM,35.6,15.8,44,29.96,10.0,WSW,27.6,39.1,N/A,,Scattered Clouds,250,2011-11-25 20:53:00
2:53 PM,33.1,12.9,43,30.14,10.0,West,17.3,35.7,N/A,,Partly Cloudy,260,2011-11-25 21:53:00
3:53 PM,33.1,12.9,43,30.17,10.0,WNW,19.6,35.7,N/A,,Partly Cloudy,290,2011-11-25 22:53:00
4:53 PM,32.0,12.0,44,30.23,10.0,West,24.2,32.2,N/A,,Clear,270,2011-11-25 23:53:00
5:53 PM,30.9,10.9,43,30.30,10.0,West,13.8,28.8,N/A,,Clear,280,2011-11-26 00:53:00
6:53 PM,30.0,12.0,47,30.37,10.0,West,23.0,32.2,N/A,,Clear,280,2011-11-26 01:53:00
7:53 PM,30.0,12.9,49,30.43,10.0,West,17.3,-,N/A,,Clear,260,2011-11-26 02:53:00
8:53 PM,30.2,14.0,51,30.34,10.0,West,16.1,27.6,N/A,,Partly Cloudy,260,2011-11-26 03:53:00
9:53 PM,30.0,12.9,49,30.53,10.0,WNW,17.3,24.2,N/A,,Clear,290,2011-11-26 04:53:00
10:53 PM,28.4,12.2,51,30.42,10.0,WNW,10.4,-,N/A,,Clear,290,2011-11-26 05:53:00
11:53 PM,28.9,12.9,51,30.60,10.0,WNW,8.1,16.1,N/A,,Clear,300,2011-11-26 06:53:00